Ana Sayfa
METAR-TAF:

METAR-TAF

Havaalanları :

Sir Seretse Khama Uluslararası Havalimanı

Gaborone, Botsvana

Enlem: 24-13S, Boylam: 025-55E, yükseklik: 1005 m

Güncel hava durumu gözlemi

Rapor saat 07:00 UTC de 57 dakika önce yapıldı.
Rüzgar kuzeydoğudan 8 kt, kuzey ve doğu arasında değişken
Sıcaklık 21°C
Nem 53%
Basınç 1024 hPa
Görüş mesafesi 10 km veya daha fazla
1500 m altında bulut yok ve kümülonimbus yok

METAR: FBSK 150700Z 05008KT 010V080 CAVOK 21/11 Q1024 NOSIG

Saat: 09:57 (07:57 UTC)

Tahmin

Rapor saat 03:00 UTC de 4 saat ve 57 dakika önce yapıldı.
Ayın 15'si saat 06 UTC'den ayın 16'si saat 12 UTC'ye kadar geçerli Tahmin
Rüzgar kuzeydoğudan 10 kt
Görüş mesafesi 10 km veya daha fazla
1500 m altında bulut yok ve kümülonimbus yok

TAF: FBSK 150300Z 1506/1612 04010KT CAVOK

4.000'den fazla havaalanı için hava durumu gözlemleri ve tahminleri (METAR ve TAF raporları).

Kullanılabilir istasyonlar harita üzerinde sarı ve kırmızı noktalarla gösterilir.

İstasyonun adını görmek için fareyi noktanın üzerinde gezdirin.

Sonrasında hava gözlem ve tahminlerini görmek için tıklayın.

Haritayı değiştirmek için: yaklaştırmak için siyah artı işaretli yeşil düğmeye ve uzaklaştırmak için de eksi işaretli düğmeye hızla tıklayın; bitişik haritalar için yeşil okları kullanın.


METAR-TAF: